sensor_id;sensor_type;location;lat;lon;timestamp;P1;durP1;ratioP1;P2;durP2;ratioP2
35564;SDS011;21668;44.784;10.336;2022-10-16T00:17:03;28.48;;;18.33;;
35564;SDS011;21668;44.784;10.336;2022-10-16T00:45:27;31.67;;;19.60;;
35564;SDS011;21668;44.784;10.336;2022-10-16T01:41:37;33.95;;;21.70;;
35564;SDS011;21668;44.784;10.336;2022-10-16T01:45:00;31.98;;;20.77;;
35564;SDS011;21668;44.784;10.336;2022-10-16T01:49:20;29.15;;;19.65;;
35564;SDS011;21668;44.784;10.336;2022-10-16T02:01:30;32.28;;;20.10;;
35564;SDS011;21668;44.784;10.336;2022-10-16T02:09:51;29.23;;;19.23;;
35564;SDS011;21668;44.784;10.336;2022-10-16T02:14:33;29.83;;;19.25;;
35564;SDS011;21668;44.784;10.336;2022-10-16T02:17:48;30.08;;;18.88;;
35564;SDS011;21668;44.784;10.336;2022-10-16T02:34:06;31.17;;;20.65;;
35564;SDS011;21668;44.784;10.336;2022-10-16T02:38:25;30.23;;;20.48;;
35564;SDS011;21668;44.784;10.336;2022-10-16T02:41:50;35.13;;;20.42;;
35564;SDS011;21668;44.784;10.336;2022-10-16T02:49:35;29.50;;;19.38;;
35564;SDS011;21668;44.784;10.336;2022-10-16T02:54:20;24.73;;;17.60;;
35564;SDS011;21668;44.784;10.336;2022-10-16T03:12:19;30.00;;;21.25;;
35564;SDS011;21668;44.784;10.336;2022-10-16T03:31:26;28.33;;;18.08;;
35564;SDS011;21668;44.784;10.336;2022-10-16T04:10:23;21.40;;;14.35;;
35564;SDS011;21668;44.784;10.336;2022-10-16T04:13:51;23.33;;;15.43;;
35564;SDS011;21668;44.784;10.336;2022-10-16T04:17:56;18.13;;;12.82;;
35564;SDS011;21668;44.784;10.336;2022-10-16T04:46:36;15.50;;;10.48;;
35564;SDS011;21668;44.784;10.336;2022-10-16T04:50:34;16.20;;;11.00;;
35564;SDS011;21668;44.784;10.336;2022-10-16T04:53:43;14.73;;;11.07;;
35564;SDS011;21668;44.784;10.336;2022-10-16T04:56:55;15.68;;;10.77;;
35564;SDS011;21668;44.784;10.336;2022-10-16T05:00:09;19.77;;;11.27;;
35564;SDS011;21668;44.784;10.336;2022-10-16T05:04:06;24.02;;;11.27;;
35564;SDS011;21668;44.784;10.336;2022-10-16T05:42:29;13.73;;;7.70;;
35564;SDS011;21668;44.784;10.336;2022-10-16T06:17:40;11.68;;;7.93;;
35564;SDS011;21668;44.784;10.336;2022-10-16T06:20:45;14.50;;;9.32;;
35564;SDS011;21668;44.784;10.336;2022-10-16T06:23:49;10.13;;;7.95;;
35564;SDS011;21668;44.784;10.336;2022-10-16T06:27:00;18.33;;;8.88;;
35564;SDS011;21668;44.784;10.336;2022-10-16T06:30:20;19.92;;;10.50;;
35564;SDS011;21668;44.784;10.336;2022-10-16T06:33:29;13.52;;;9.55;;
35564;SDS011;21668;44.784;10.336;2022-10-16T06:36:51;14.75;;;9.07;;
35564;SDS011;21668;44.784;10.336;2022-10-16T06:40:01;12.63;;;8.93;;
35564;SDS011;21668;44.784;10.336;2022-10-16T06:43:22;14.47;;;8.40;;
35564;SDS011;21668;44.784;10.336;2022-10-16T06:46:34;14.27;;;9.10;;
35564;SDS011;21668;44.784;10.336;2022-10-16T06:49:41;12.93;;;8.75;;
35564;SDS011;21668;44.784;10.336;2022-10-16T07:09:57;14.35;;;8.20;;
35564;SDS011;21668;44.784;10.336;2022-10-16T07:13:08;13.90;;;7.68;;
35564;SDS011;21668;44.784;10.336;2022-10-16T07:16:23;12.00;;;7.30;;
35564;SDS011;21668;44.784;10.336;2022-10-16T07:34:03;11.98;;;6.25;;
35564;SDS011;21668;44.784;10.336;2022-10-16T08:21:21;10.02;;;5.88;;
35564;SDS011;21668;44.784;10.336;2022-10-16T08:24:47;20.35;;;12.20;;
35564;SDS011;21668;44.784;10.336;2022-10-16T08:28:09;19.50;;;10.55;;
35564;SDS011;21668;44.784;10.336;2022-10-16T08:31:23;17.55;;;11.10;;
35564;SDS011;21668;44.784;10.336;2022-10-16T08:34:29;19.38;;;12.23;;
35564;SDS011;21668;44.784;10.336;2022-10-16T08:37:38;23.88;;;11.52;;
35564;SDS011;21668;44.784;10.336;2022-10-16T08:45:02;24.17;;;14.40;;
35564;SDS011;21668;44.784;10.336;2022-10-16T08:59:35;16.25;;;11.82;;
35564;SDS011;21668;44.784;10.336;2022-10-16T09:02:49;19.17;;;11.27;;
35564;SDS011;21668;44.784;10.336;2022-10-16T09:06:20;19.05;;;11.48;;
35564;SDS011;21668;44.784;10.336;2022-10-16T09:10:11;25.38;;;18.42;;
35564;SDS011;21668;44.784;10.336;2022-10-16T09:22:43;24.38;;;16.23;;
35564;SDS011;21668;44.784;10.336;2022-10-16T09:26:56;30.58;;;16.73;;
35564;SDS011;21668;44.784;10.336;2022-10-16T09:30:18;36.22;;;22.90;;
35564;SDS011;21668;44.784;10.336;2022-10-16T09:39:48;35.90;;;25.90;;
35564;SDS011;21668;44.784;10.336;2022-10-16T09:51:36;44.03;;;27.40;;
35564;SDS011;21668;44.784;10.336;2022-10-16T11:21:04;47.28;;;30.05;;
35564;SDS011;21668;44.784;10.336;2022-10-16T11:25:22;39.72;;;25.08;;
35564;SDS011;21668;44.784;10.336;2022-10-16T11:36:28;35.80;;;24.85;;
35564;SDS011;21668;44.784;10.336;2022-10-16T12:42:02;46.88;;;28.48;;
35564;SDS011;21668;44.784;10.336;2022-10-16T12:45:41;41.75;;;27.65;;
35564;SDS011;21668;44.784;10.336;2022-10-16T12:48:49;46.85;;;28.73;;
35564;SDS011;21668;44.784;10.336;2022-10-16T13:06:19;43.60;;;24.58;;
35564;SDS011;21668;44.784;10.336;2022-10-16T13:09:27;43.15;;;27.42;;
35564;SDS011;21668;44.784;10.336;2022-10-16T13:29:17;36.25;;;24.98;;
35564;SDS011;21668;44.784;10.336;2022-10-16T13:41:42;35.20;;;23.77;;
35564;SDS011;21668;44.784;10.336;2022-10-16T13:50:23;38.35;;;23.33;;
35564;SDS011;21668;44.784;10.336;2022-10-16T14:12:54;26.77;;;16.37;;
35564;SDS011;21668;44.784;10.336;2022-10-16T14:16:47;28.02;;;16.85;;
35564;SDS011;21668;44.784;10.336;2022-10-16T14:33:40;16.00;;;11.23;;
35564;SDS011;21668;44.784;10.336;2022-10-16T14:37:08;16.38;;;11.38;;
35564;SDS011;21668;44.784;10.336;2022-10-16T14:40:37;11.93;;;8.60;;
35564;SDS011;21668;44.784;10.336;2022-10-16T14:43:42;14.55;;;9.57;;
35564;SDS011;21668;44.784;10.336;2022-10-16T14:46:52;16.58;;;10.02;;
35564;SDS011;21668;44.784;10.336;2022-10-16T14:50:17;14.10;;;9.70;;
35564;SDS011;21668;44.784;10.336;2022-10-16T14:53:33;12.40;;;8.80;;
35564;SDS011;21668;44.784;10.336;2022-10-16T14:57:29;16.42;;;9.88;;
35564;SDS011;21668;44.784;10.336;2022-10-16T15:00:42;14.47;;;10.43;;
35564;SDS011;21668;44.784;10.336;2022-10-16T15:07:38;16.48;;;11.20;;
35564;SDS011;21668;44.784;10.336;2022-10-16T15:11:21;18.33;;;10.75;;
35564;SDS011;21668;44.784;10.336;2022-10-16T15:24:24;15.73;;;9.75;;
35564;SDS011;21668;44.784;10.336;2022-10-16T15:27:29;11.88;;;8.65;;
35564;SDS011;21668;44.784;10.336;2022-10-16T15:30:34;11.82;;;8.63;;
35564;SDS011;21668;44.784;10.336;2022-10-16T15:33:42;11.40;;;8.13;;
35564;SDS011;21668;44.784;10.336;2022-10-16T15:36:57;14.85;;;8.63;;
35564;SDS011;21668;44.784;10.336;2022-10-16T15:43:36;11.35;;;8.70;;
35564;SDS011;21668;44.784;10.336;2022-10-16T15:46:40;15.93;;;8.63;;
35564;SDS011;21668;44.784;10.336;2022-10-16T15:49:44;14.00;;;9.55;;
35564;SDS011;21668;44.784;10.336;2022-10-16T15:52:58;19.92;;;11.35;;
35564;SDS011;21668;44.784;10.336;2022-10-16T15:56:41;12.73;;;9.50;;
35564;SDS011;21668;44.784;10.336;2022-10-16T16:00:20;13.95;;;9.55;;
35564;SDS011;21668;44.784;10.336;2022-10-16T16:03:54;19.05;;;11.07;;
35564;SDS011;21668;44.784;10.336;2022-10-16T16:07:28;15.90;;;9.93;;
35564;SDS011;21668;44.784;10.336;2022-10-16T16:14:53;13.48;;;9.07;;
35564;SDS011;21668;44.784;10.336;2022-10-16T16:17:57;20.17;;;8.60;;
35564;SDS011;21668;44.784;10.336;2022-10-16T16:29:23;13.43;;;8.50;;
35564;SDS011;21668;44.784;10.336;2022-10-16T16:32:27;13.55;;;8.77;;
35564;SDS011;21668;44.784;10.336;2022-10-16T16:36:04;11.63;;;8.73;;
35564;SDS011;21668;44.784;10.336;2022-10-16T16:39:14;14.35;;;9.38;;
35564;SDS011;21668;44.784;10.336;2022-10-16T16:42:18;16.73;;;9.70;;
35564;SDS011;21668;44.784;10.336;2022-10-16T16:45:25;17.08;;;10.20;;
35564;SDS011;21668;44.784;10.336;2022-10-16T16:48:31;19.13;;;10.02;;
35564;SDS011;21668;44.784;10.336;2022-10-16T16:52:02;13.63;;;10.55;;
35564;SDS011;21668;44.784;10.336;2022-10-16T16:55:07;13.05;;;9.95;;
35564;SDS011;21668;44.784;10.336;2022-10-16T16:58:11;14.80;;;10.50;;
35564;SDS011;21668;44.784;10.336;2022-10-16T17:01:16;16.58;;;9.95;;
35564;SDS011;21668;44.784;10.336;2022-10-16T17:04:21;19.00;;;10.23;;
35564;SDS011;21668;44.784;10.336;2022-10-16T17:07:26;22.92;;;11.48;;
35564;SDS011;21668;44.784;10.336;2022-10-16T17:10:41;21.13;;;11.35;;
35564;SDS011;21668;44.784;10.336;2022-10-16T17:17:53;22.20;;;11.68;;
35564;SDS011;21668;44.784;10.336;2022-10-16T17:21:01;17.08;;;10.48;;
35564;SDS011;21668;44.784;10.336;2022-10-16T17:24:14;17.98;;;11.48;;
35564;SDS011;21668;44.784;10.336;2022-10-16T17:27:21;19.40;;;13.20;;
35564;SDS011;21668;44.784;10.336;2022-10-16T17:30:30;18.25;;;11.98;;
35564;SDS011;21668;44.784;10.336;2022-10-16T17:33:45;19.85;;;11.63;;
35564;SDS011;21668;44.784;10.336;2022-10-16T17:36:51;21.25;;;11.68;;
35564;SDS011;21668;44.784;10.336;2022-10-16T17:39:55;17.52;;;11.30;;
35564;SDS011;21668;44.784;10.336;2022-10-16T17:43:16;20.30;;;12.18;;
35564;SDS011;21668;44.784;10.336;2022-10-16T17:46:50;27.13;;;12.80;;
35564;SDS011;21668;44.784;10.336;2022-10-16T17:50:15;21.67;;;12.48;;
35564;SDS011;21668;44.784;10.336;2022-10-16T17:53:30;23.63;;;14.30;;
35564;SDS011;21668;44.784;10.336;2022-10-16T18:00:15;23.30;;;15.23;;
35564;SDS011;21668;44.784;10.336;2022-10-16T18:03:32;22.15;;;14.55;;
35564;SDS011;21668;44.784;10.336;2022-10-16T18:06:49;28.45;;;15.23;;
35564;SDS011;21668;44.784;10.336;2022-10-16T18:10:02;22.63;;;14.68;;
35564;SDS011;21668;44.784;10.336;2022-10-16T18:13:12;26.02;;;14.75;;
35564;SDS011;21668;44.784;10.336;2022-10-16T18:16:17;20.75;;;13.65;;
35564;SDS011;21668;44.784;10.336;2022-10-16T18:19:26;23.90;;;14.35;;
35564;SDS011;21668;44.784;10.336;2022-10-16T18:22:32;19.52;;;14.93;;
35564;SDS011;21668;44.784;10.336;2022-10-16T18:25:41;23.35;;;15.95;;
35564;SDS011;21668;44.784;10.336;2022-10-16T18:28:58;24.00;;;15.98;;
35564;SDS011;21668;44.784;10.336;2022-10-16T18:32:04;24.08;;;17.02;;
35564;SDS011;21668;44.784;10.336;2022-10-16T18:35:08;29.40;;;17.60;;
35564;SDS011;21668;44.784;10.336;2022-10-16T18:38:12;27.23;;;17.23;;
35564;SDS011;21668;44.784;10.336;2022-10-16T18:41:17;27.90;;;17.48;;
35564;SDS011;21668;44.784;10.336;2022-10-16T18:44:25;26.10;;;15.60;;
35564;SDS011;21668;44.784;10.336;2022-10-16T18:47:35;25.45;;;17.60;;
35564;SDS011;21668;44.784;10.336;2022-10-16T18:50:42;28.60;;;16.85;;
35564;SDS011;21668;44.784;10.336;2022-10-16T18:53:51;31.25;;;17.33;;
35564;SDS011;21668;44.784;10.336;2022-10-16T18:57:12;27.00;;;17.40;;
35564;SDS011;21668;44.784;10.336;2022-10-16T19:03:29;27.55;;;16.92;;
35564;SDS011;21668;44.784;10.336;2022-10-16T19:06:37;23.75;;;16.92;;
35564;SDS011;21668;44.784;10.336;2022-10-16T19:10:11;28.40;;;18.20;;
35564;SDS011;21668;44.784;10.336;2022-10-16T19:13:19;28.55;;;18.75;;
35564;SDS011;21668;44.784;10.336;2022-10-16T19:16:27;27.65;;;17.42;;
35564;SDS011;21668;44.784;10.336;2022-10-16T19:19:34;26.85;;;16.52;;
35564;SDS011;21668;44.784;10.336;2022-10-16T19:23:01;29.60;;;19.55;;
35564;SDS011;21668;44.784;10.336;2022-10-16T19:26:07;31.23;;;18.45;;
35564;SDS011;21668;44.784;10.336;2022-10-16T19:29:13;23.90;;;17.30;;
35564;SDS011;21668;44.784;10.336;2022-10-16T19:32:21;28.13;;;18.52;;
35564;SDS011;21668;44.784;10.336;2022-10-16T19:35:33;31.25;;;19.92;;
35564;SDS011;21668;44.784;10.336;2022-10-16T19:38:38;27.25;;;18.52;;
35564;SDS011;21668;44.784;10.336;2022-10-16T19:41:46;31.98;;;19.45;;
35564;SDS011;21668;44.784;10.336;2022-10-16T19:45:08;29.70;;;18.98;;
35564;SDS011;21668;44.784;10.336;2022-10-16T19:48:16;28.08;;;18.65;;
35564;SDS011;21668;44.784;10.336;2022-10-16T19:51:21;27.65;;;17.73;;
35564;SDS011;21668;44.784;10.336;2022-10-16T19:54:30;28.63;;;18.02;;
35564;SDS011;21668;44.784;10.336;2022-10-16T20:00:44;26.80;;;18.58;;
35564;SDS011;21668;44.784;10.336;2022-10-16T20:04:11;27.63;;;18.02;;
35564;SDS011;21668;44.784;10.336;2022-10-16T20:07:21;26.52;;;18.23;;
35564;SDS011;21668;44.784;10.336;2022-10-16T20:10:27;29.77;;;18.05;;
35564;SDS011;21668;44.784;10.336;2022-10-16T20:13:35;25.08;;;17.35;;
35564;SDS011;21668;44.784;10.336;2022-10-16T20:16:38;25.10;;;16.58;;
35564;SDS011;21668;44.784;10.336;2022-10-16T20:19:45;24.45;;;16.13;;
35564;SDS011;21668;44.784;10.336;2022-10-16T20:22:55;26.00;;;16.60;;
35564;SDS011;21668;44.784;10.336;2022-10-16T20:26:02;20.80;;;16.50;;
35564;SDS011;21668;44.784;10.336;2022-10-16T20:29:09;30.60;;;18.33;;
35564;SDS011;21668;44.784;10.336;2022-10-16T20:32:13;23.83;;;16.95;;
35564;SDS011;21668;44.784;10.336;2022-10-16T20:35:19;25.60;;;17.45;;
35564;SDS011;21668;44.784;10.336;2022-10-16T20:38:24;24.58;;;16.77;;
35564;SDS011;21668;44.784;10.336;2022-10-16T20:41:28;27.67;;;17.95;;
35564;SDS011;21668;44.784;10.336;2022-10-16T20:44:34;29.83;;;16.90;;
35564;SDS011;21668;44.784;10.336;2022-10-16T20:47:41;23.65;;;16.88;;
35564;SDS011;21668;44.784;10.336;2022-10-16T20:50:48;26.33;;;17.17;;
35564;SDS011;21668;44.784;10.336;2022-10-16T20:53:56;27.58;;;17.05;;
35564;SDS011;21668;44.784;10.336;2022-10-16T20:57:06;26.15;;;17.15;;
35564;SDS011;21668;44.784;10.336;2022-10-16T21:00:10;21.48;;;15.55;;
35564;SDS011;21668;44.784;10.336;2022-10-16T21:03:16;29.50;;;17.33;;
35564;SDS011;21668;44.784;10.336;2022-10-16T21:06:25;25.90;;;17.60;;
35564;SDS011;21668;44.784;10.336;2022-10-16T21:09:32;27.48;;;18.10;;
35564;SDS011;21668;44.784;10.336;2022-10-16T21:16:58;24.85;;;17.08;;
35564;SDS011;21668;44.784;10.336;2022-10-16T21:20:31;27.77;;;16.70;;
35564;SDS011;21668;44.784;10.336;2022-10-16T21:24:26;24.80;;;17.02;;
35564;SDS011;21668;44.784;10.336;2022-10-16T21:31:42;23.30;;;17.30;;
35564;SDS011;21668;44.784;10.336;2022-10-16T21:40:03;26.73;;;17.35;;
35564;SDS011;21668;44.784;10.336;2022-10-16T21:44:32;29.38;;;17.38;;
35564;SDS011;21668;44.784;10.336;2022-10-16T21:56:32;27.35;;;18.02;;
35564;SDS011;21668;44.784;10.336;2022-10-16T22:09:07;25.35;;;16.85;;
35564;SDS011;21668;44.784;10.336;2022-10-16T22:12:15;26.75;;;16.75;;
35564;SDS011;21668;44.784;10.336;2022-10-16T22:15:22;28.10;;;17.80;;
35564;SDS011;21668;44.784;10.336;2022-10-16T22:25:11;29.33;;;17.95;;
35564;SDS011;21668;44.784;10.336;2022-10-16T22:28:16;27.92;;;17.98;;
35564;SDS011;21668;44.784;10.336;2022-10-16T22:35:36;28.60;;;18.17;;
35564;SDS011;21668;44.784;10.336;2022-10-16T22:38:43;26.75;;;18.95;;
35564;SDS011;21668;44.784;10.336;2022-10-16T22:41:47;26.98;;;18.35;;
35564;SDS011;21668;44.784;10.336;2022-10-16T22:44:52;27.10;;;18.00;;
35564;SDS011;21668;44.784;10.336;2022-10-16T22:47:58;27.70;;;18.65;;
35564;SDS011;21668;44.784;10.336;2022-10-16T22:51:06;25.35;;;16.80;;
35564;SDS011;21668;44.784;10.336;2022-10-16T22:54:12;28.48;;;17.63;;
35564;SDS011;21668;44.784;10.336;2022-10-16T22:57:18;27.65;;;17.58;;
35564;SDS011;21668;44.784;10.336;2022-10-16T23:00:26;27.35;;;17.88;;
35564;SDS011;21668;44.784;10.336;2022-10-16T23:07:35;25.85;;;17.73;;
35564;SDS011;21668;44.784;10.336;2022-10-16T23:10:41;24.45;;;17.42;;
35564;SDS011;21668;44.784;10.336;2022-10-16T23:13:50;25.35;;;17.10;;
35564;SDS011;21668;44.784;10.336;2022-10-16T23:17:20;26.20;;;17.20;;
35564;SDS011;21668;44.784;10.336;2022-10-16T23:20:25;25.42;;;16.60;;
35564;SDS011;21668;44.784;10.336;2022-10-16T23:23:34;27.25;;;16.35;;
35564;SDS011;21668;44.784;10.336;2022-10-16T23:26:40;28.63;;;17.60;;
35564;SDS011;21668;44.784;10.336;2022-10-16T23:29:45;24.17;;;17.52;;
35564;SDS011;21668;44.784;10.336;2022-10-16T23:32:52;28.45;;;17.60;;
35564;SDS011;21668;44.784;10.336;2022-10-16T23:36:14;23.33;;;16.88;;
35564;SDS011;21668;44.784;10.336;2022-10-16T23:44:00;31.92;;;18.88;;
35564;SDS011;21668;44.784;10.336;2022-10-16T23:50:47;29.67;;;20.13;;
35564;SDS011;21668;44.784;10.336;2022-10-16T23:54:00;32.22;;;19.63;;
35564;SDS011;21668;44.784;10.336;2022-10-16T23:57:08;32.78;;;20.00;;
